Aegean Viii — SXKO — position and weather

sailwx.info

Track history (hours):
 
Tides and Currents Weather Stations Pressure Air Temp Water Temp Dewpoint Dewpoint Depression Visibility Wind Speed Wind Dir Waves Ship Positions

Aegean Viii

Last reported at 2017-Jun-22 15:43 UTC. Time now 2017-Jun-23 00:10 UTC.
Position N 38°02' E 023°32'.

Length 12 m; draft 3.8 m.

Type: Tanker. MMSI: 240732000.

Date/timePositionNaut miles runAvg speedWind from/ knotsBaromVisibWave heightAir tempDewpointWater temp
2017-Jun-22 15:43N 38°02' E 023°32'0 0.0
2017-Jun-22 15:30N 38°02' E 023°32'1 1.5
2017-Jun-22 15:00N 38°02' E 023°32'4 8.7
2017-Jun-22 14:30N 37°57' E 023°34'3 3.0
2017-Jun-22 13:30N 37°56' E 023°37'0 0.0
2017-Jun-22 13:00N 37°56' E 023°37'0 0.0
2017-Jun-22 12:30N 37°56' E 023°37'0 0.0
2017-Jun-22 12:00N 37°56' E 023°37'0 0.0
2017-Jun-22 11:30N 37°56' E 023°37'0 0.1
2017-Jun-22 11:00N 37°56' E 023°37'1 2.6
2017-Jun-22 10:30N 37°57' E 023°36'4 7.4
2017-Jun-22 10:00N 37°60' E 023°33'3 5.5
2017-Jun-22 09:30N 38°02' E 023°32'0 0.0
2017-Jun-22 09:00N 38°02' E 023°32'0 0.0
2017-Jun-22 08:30N 38°02' E 023°32'0 0.0
2017-Jun-22 08:00N 38°02' E 023°32'0 0.0
2017-Jun-22 07:26N 38°02' E 023°32'0 0.0
2017-Jun-22 06:59N 38°02' E 023°32'0 0.0
2017-Jun-22 06:30N 38°02' E 023°32'0 0.1
2017-Jun-22 06:00N 38°02' E 023°32'0 0.0
2017-Jun-22 05:29N 38°02' E 023°32'0 0.0
2017-Jun-22 05:00N 38°02' E 023°32'0 0.0
2017-Jun-21 14:00N 38°02' E 023°32'2 4.8
2017-Jun-21 13:31N 38°02' E 023°35'1 1.0
2017-Jun-21 13:01N 38°02' E 023°36'0 0.0
2017-Jun-21 12:30N 38°02' E 023°36'0 0.0
2017-Jun-21 12:01N 38°02' E 023°36'0 0.0
2017-Jun-21 11:30N 38°02' E 023°36'0 0.0
2017-Jun-21 11:00N 38°02' E 023°36'0 0.0
2017-Jun-21 10:30N 38°02' E 023°36'0 0.0
2017-Jun-21 10:00N 38°02' E 023°36'0 0.7
2017-Jun-21 09:31N 38°02' E 023°35'0 0.0
2017-Jun-21 09:00N 38°02' E 023°35'0 0.0
2017-Jun-21 08:29N 38°02' E 023°35'0 0.0
2017-Jun-21 08:00N 38°02' E 023°35'0 0.0
2017-Jun-21 07:30N 38°02' E 023°35'0 0.0
2017-Jun-21 07:01N 38°02' E 023°35'1 1.5
2017-Jun-21 06:30N 38°02' E 023°34'2 4.0
2017-Jun-21 06:00N 38°02' E 023°32'0 0.0
2017-Jun-21 05:30N 38°02' E 023°32'0 0.0
2017-Jun-21 05:00N 38°02' E 023°32'0 0.0
2017-Jun-20 12:02N 38°02' E 023°32'0 0.1
2017-Jun-20 12:00N 38°02' E 023°32'0 0.0
2017-Jun-20 11:30N 38°02' E 023°32'0 0.9
2017-Jun-20 11:00N 38°02' E 023°32'4 6.9
2017-Jun-20 10:29N 37°58' E 023°33'3 7.1
2017-Jun-20 10:00N 37°57' E 023°36'1 2.7
2017-Jun-20 09:29N 37°56' E 023°38'0 0.0
2017-Jun-20 08:59N 37°56' E 023°38'0 0.0
2017-Jun-20 08:30N 37°56' E 023°38'0 0.0
2017-Jun-20 07:22N 37°56' E 023°38'0 0.0
2017-Jun-20 06:54N 37°56' E 023°38'0 0.0
2017-Jun-20 06:27N 37°56' E 023°38'0 0.0
2017-Jun-20 05:57N 37°56' E 023°38'1 2.3
2017-Jun-20 05:30N 37°56' E 023°37'4 7.8
2017-Jun-20 05:00N 37°58' E 023°33'4 7.8
2017-Jun-20 04:30N 38°02' E 023°32'0 0.0
2017-Jun-20 04:00N 38°02' E 023°32'0 0.0
2017-Jun-20 03:30N 38°02' E 023°32'0 0.0
2017-Jun-19 14:49N 38°02' E 023°32'1 1.3
2017-Jun-19 14:00N 38°02' E 023°31'0 0.1
2017-Jun-19 13:31N 38°02' E 023°31'0 0.0
2017-Jun-19 13:00N 38°02' E 023°31'0 0.0
2017-Jun-19 12:30N 38°02' E 023°31'0 0.0
2017-Jun-19 12:00N 38°02' E 023°31'0 0.0
2017-Jun-19 11:30N 38°02' E 023°31'0 0.0
2017-Jun-19 11:00N 38°02' E 023°31'0 0.0
2017-Jun-19 10:30N 38°02' E 023°31'2 3.4
2017-Jun-19 10:00N 38°01' E 023°32'4 7.9
2017-Jun-19 09:29N 37°57' E 023°34'3 6.4
2017-Jun-19 09:00N 37°54' E 023°33'1 2.8
2017-Jun-19 08:30N 37°53' E 023°32'0 0.0
2017-Jun-19 08:00N 37°53' E 023°32'0 0.0
2017-Jun-19 07:30N 37°53' E 023°32'0 0.0
2017-Jun-19 07:00N 37°53' E 023°33'0 0.0
2017-Jun-19 05:39N 37°53' E 023°33'0 0.3
2017-Jun-19 05:30N 37°53' E 023°33'0 0.0
2017-Jun-19 05:00N 37°53' E 023°33'0 0.0
2017-Jun-19 04:30N 37°53' E 023°33'0 0.0
2017-Jun-19 04:00N 37°53' E 023°32'0 0.0
2017-Jun-19 03:30N 37°53' E 023°32'0 0.0
2017-Jun-19 03:00N 37°53' E 023°33'0 0.1
2017-Jun-19 02:30N 37°53' E 023°33'0 0.0
2017-Jun-19 02:00N 37°53' E 023°33'0 0.0
2017-Jun-19 01:30N 37°53' E 023°33'0 0.7
2017-Jun-19 00:59N 37°53' E 023°32'4 7.8
2017-Jun-19 00:30N 37°52' E 023°28'4 8.2
2017-Jun-19 00:00N 37°54' E 023°23'4 8.3
2017-Jun-18 23:29N 37°57' E 023°25'3 5.8
2017-Jun-18 23:00N 37°60' E 023°26'4 8.4
2017-Jun-18 22:31N 38°01' E 023°31'3 6.7
2017-Jun-18 22:00N 38°02' E 023°36'0 0.2
2017-Jun-18 21:30N 38°02' E 023°36'0 0.0
2017-Jun-18 20:59N 38°02' E 023°36'0 0.0
2017-Jun-18 20:30N 38°02' E 023°36'0 0.0
2017-Jun-18 20:00N 38°02' E 023°36'0 0.0
2017-Jun-18 19:30N 38°02' E 023°36'0 0.0
2017-Jun-18 19:00N 38°02' E 023°36'0 0.0
2017-Jun-18 18:30N 38°02' E 023°36'0 0.0
2017-Jun-18 18:00N 38°02' E 023°36'0 0.0
2017-Jun-18 17:29N 38°02' E 023°36'0 0.0
2017-Jun-18 17:01N 38°02' E 023°36'0 0.0
2017-Jun-18 16:31N 38°02' E 023°36'0 0.0
2017-Jun-18 16:00N 38°02' E 023°36'0 0.0
2017-Jun-18 15:30N 38°02' E 023°36'0 0.0
2017-Jun-18 15:00N 38°02' E 023°36'1 0.6
2017-Jun-18 14:00N 38°02' E 023°35'0 0.0
2017-Jun-18 13:30N 38°02' E 023°35'0 0.0
2017-Jun-18 13:00N 38°02' E 023°35'0 0.0
2017-Jun-18 12:30N 38°02' E 023°35'0 0.0
2017-Jun-18 12:00N 38°02' E 023°35'0 0.0
2017-Jun-18 11:30N 38°02' E 023°35'0 0.0
2017-Jun-18 11:00N 38°02' E 023°35'0 0.0
2017-Jun-18 10:31N 38°02' E 023°35'0 0.0
2017-Jun-18 10:00N 38°02' E 023°35'0 0.0
2017-Jun-18 09:30N 38°02' E 023°35'0 0.0
2017-Jun-18 09:00N 38°02' E 023°35'0 0.0
2017-Jun-18 08:30N 38°02' E 023°35'0 0.0
2017-Jun-18 08:00N 38°02' E 023°35'0 0.0
2017-Jun-18 07:30N 38°02' E 023°35'0 0.0
2017-Jun-18 07:01N 38°02' E 023°35'0 0.0
2017-Jun-18 06:30N 38°02' E 023°35'0 0.0
2017-Jun-18 06:00N 38°02' E 023°35'0 0.0
2017-Jun-18 05:30N 38°02' E 023°35'0 0.0
2017-Jun-18 05:00N 38°02' E 023°35'0 0.1
2017-Jun-18 04:30N 38°02' E 023°35'0 0.0
2017-Jun-18 04:01N 38°02' E 023°35'0 0.0
2017-Jun-18 03:30N 38°02' E 023°35'0 0.0
2017-Jun-18 03:00N 38°02' E 023°35'0 0.1
2017-Jun-18 02:31N 38°02' E 023°35'0 0.0
2017-Jun-18 02:00N 38°02' E 023°35'0 0.0
2017-Jun-18 01:30N 38°02' E 023°35'0 0.0
2017-Jun-18 01:00N 38°02' E 023°35'0 0.0
2017-Jun-18 00:30N 38°02' E 023°35'0 0.0
2017-Jun-18 00:01N 38°02' E 023°35'0 0.0
2017-Jun-17 23:30N 38°02' E 023°35'0 0.0
2017-Jun-17 23:00N 38°02' E 023°35'0 0.0
2017-Jun-17 22:30N 38°02' E 023°35'0 0.0
2017-Jun-17 22:00N 38°02' E 023°35'0 0.1
2017-Jun-17 21:30N 38°02' E 023°35'0 0.0
2017-Jun-17 21:01N 38°02' E 023°35'0 0.0
2017-Jun-17 20:30N 38°02' E 023°35'0 0.0
2017-Jun-17 20:00N 38°02' E 023°35'0 0.1
2017-Jun-17 19:30N 38°02' E 023°35'0 0.0
2017-Jun-17 19:00N 38°02' E 023°35'0 0.0
2017-Jun-17 18:30N 38°02' E 023°35'0 0.0
2017-Jun-17 18:00N 38°02' E 023°35'0 0.1
2017-Jun-17 17:30N 38°02' E 023°35'0 0.0
2017-Jun-17 17:00N 38°02' E 023°35'0 0.0
2017-Jun-17 16:31N 38°02' E 023°35'0 0.1
2017-Jun-17 15:59N 38°02' E 023°35'0 0.1
2017-Jun-17 15:31N 38°02' E 023°35'0 0.1
2017-Jun-17 15:00N 38°02' E 023°35'0 0.0
2017-Jun-17 14:00N 38°02' E 023°35'0 0.0
2017-Jun-17 13:30N 38°02' E 023°35'0 0.0
2017-Jun-17 13:00N 38°02' E 023°35'0 0.0
2017-Jun-17 12:30N 38°02' E 023°35'0 0.1
2017-Jun-17 12:00N 38°02' E 023°35'0 0.0
2017-Jun-17 11:31N 38°02' E 023°35'0 0.0
2017-Jun-17 11:00N 38°02' E 023°35'0 0.0
2017-Jun-17 10:30N 38°02' E 023°35'0 0.0
2017-Jun-17 10:00N 38°02' E 023°35'0 0.0
2017-Jun-17 09:30N 38°02' E 023°35'0 0.0
2017-Jun-17 09:00N 38°02' E 023°35'0 0.0
2017-Jun-17 08:30N 38°02' E 023°35'0 0.0
2017-Jun-17 08:00N 38°02' E 023°35'0 0.0
2017-Jun-17 07:30N 38°02' E 023°35'0 0.0
2017-Jun-17 07:01N 38°02' E 023°35'0 0.0
2017-Jun-17 06:30N 38°02' E 023°35'0 0.0
2017-Jun-17 05:59N 38°02' E 023°35'0 0.0
2017-Jun-17 05:29N 38°02' E 023°35'0 0.0
2017-Jun-17 05:01N 38°02' E 023°35'0 0.1
2017-Jun-17 04:31N 38°02' E 023°35'0 0.1
2017-Jun-17 03:59N 38°02' E 023°35'0 0.6
2017-Jun-17 03:31N 38°02' E 023°34'2 3.8
2017-Jun-17 02:59N 38°02' E 023°32'0 0.0
2017-Jun-17 02:30N 38°02' E 023°32'0 0.0
2017-Jun-16 12:42N 38°02' E 023°32'0 0.0
2017-Jun-16 12:31N 38°02' E 023°32'0 0.4
2017-Jun-16 12:00N 38°02' E 023°32'0 0.4
2017-Jun-16 11:30N 38°02' E 023°32'0 0.0
2017-Jun-16 11:00N 38°02' E 023°32'0 0.0
2017-Jun-16 10:30N 38°02' E 023°32'0 0.0
2017-Jun-16 10:00N 38°02' E 023°32'0 0.0
2017-Jun-16 09:30N 38°02' E 023°32'0 0.0
2017-Jun-16 09:00N 38°02' E 023°32'0 0.0
2017-Jun-16 08:30N 38°02' E 023°32'0 0.0
2017-Jun-16 08:00N 38°02' E 023°32'0 0.0
2017-Jun-16 07:30N 38°02' E 023°32'0 0.0
2017-Jun-16 07:00N 38°02' E 023°32'0 0.0
2017-Jun-16 06:30N 38°02' E 023°32'0 0.0
2017-Jun-16 06:01N 38°02' E 023°32'0 0.0
2017-Jun-16 05:30N 38°02' E 023°32'0 0.0
2017-Jun-16 05:01N 38°02' E 023°32'0 0.0
2017-Jun-16 04:31N 38°02' E 023°32'0 0.0
2017-Jun-15 11:23N 38°02' E 023°32'0 0.0
2017-Jun-15 11:00N 38°02' E 023°32'0 0.0
2017-Jun-15 10:30N 38°02' E 023°32'0 0.0
2017-Jun-15 10:00N 38°02' E 023°32'0 0.0
2017-Jun-15 09:30N 38°02' E 023°32'0 0.0
2017-Jun-15 09:00N 38°02' E 023°32'0 0.0
2017-Jun-15 08:29N 38°02' E 023°32'0 0.0
2017-Jun-15 08:00N 38°02' E 023°32'0 0.0
2017-Jun-15 07:30N 38°02' E 023°32'0 0.0
2017-Jun-15 07:00N 38°02' E 023°32'0 0.0
2017-Jun-15 06:30N 38°02' E 023°32'0 0.0
2017-Jun-15 06:00N 38°02' E 023°32'0 0.2
2017-Jun-15 05:30N 38°02' E 023°32'0 0.2
2017-Jun-15 05:01N 38°02' E 023°32'0 0.0
2017-Jun-15 04:30N 38°02' E 023°32'0 0.0
2017-Jun-14 13:30N 38°02' E 023°32'1 1.8
2017-Jun-14 13:01N 38°01' E 023°32'5 9.1
2017-Jun-14 12:30N 37°57' E 023°34'4 8.7
2017-Jun-14 12:00N 37°53' E 023°33'1 1.9
2017-Jun-14 11:30N 37°52' E 023°33'0 0.0
2017-Jun-14 11:00N 37°52' E 023°33'0 0.1
2017-Jun-14 10:30N 37°52' E 023°33'0 0.1
2017-Jun-14 10:00N 37°52' E 023°33'0 0.0
2017-Jun-14 09:29N 37°52' E 023°33'0 0.0
2017-Jun-14 09:01N 37°52' E 023°33'0 0.1
2017-Jun-14 08:30N 37°52' E 023°33'0 0.0
2017-Jun-14 08:00N 37°52' E 023°33'0 0.1
2017-Jun-14 07:30N 37°52' E 023°33'0 0.0
2017-Jun-14 07:00N 37°52' E 023°33'0 0.1
2017-Jun-14 06:30N 37°52' E 023°33'0 0.0
2017-Jun-14 06:00N 37°52' E 023°33'0 0.1
2017-Jun-14 05:30N 37°52' E 023°33'0 0.3
2017-Jun-14 05:00N 37°52' E 023°32'2 3.2
2017-Jun-14 04:30N 37°54' E 023°33'4 7.2
2017-Jun-14 04:00N 37°57' E 023°34'3 7.0
2017-Jun-14 03:30N 38°01' E 023°32'2 3.6
2017-Jun-14 03:00N 38°02' E 023°32'0 0.0
2017-Jun-14 02:30N 38°02' E 023°32'0 0.0
2017-Jun-13 17:43N 38°02' E 023°32'0 0.0
2017-Jun-13 17:30N 38°02' E 023°32'1 2.0
2017-Jun-13 17:00N 38°02' E 023°31'0 0.1
2017-Jun-13 16:30N 38°02' E 023°31'0 0.0
2017-Jun-13 16:00N 38°02' E 023°31'0 0.0
2017-Jun-13 15:31N 38°02' E 023°31'0 0.0
2017-Jun-13 15:01N 38°02' E 023°31'0 0.0
2017-Jun-13 14:00N 38°02' E 023°31'0 0.0
2017-Jun-13 13:30N 38°02' E 023°31'0 0.3
2017-Jun-13 13:00N 38°02' E 023°31'1 1.1
2017-Jun-13 12:30N 38°02' E 023°32'0 0.0
2017-Jun-13 11:59N 38°02' E 023°32'0 0.1
2017-Jun-13 11:30N 38°02' E 023°31'2 4.3
2017-Jun-13 11:00N 38°02' E 023°34'0 0.9
2017-Jun-13 10:31N 38°02' E 023°35'0 0.1
2017-Jun-13 10:01N 38°02' E 023°35'0 0.0
2017-Jun-13 09:30N 38°02' E 023°35'0 0.0
2017-Jun-13 09:00N 38°02' E 023°35'0 0.0
2017-Jun-13 08:30N 38°02' E 023°35'1 1.3
2017-Jun-13 08:00N 38°02' E 023°34'2 3.3
2017-Jun-13 07:30N 38°02' E 023°32'0 0.0
2017-Jun-13 07:01N 38°02' E 023°32'0 0.0
2017-Jun-13 06:30N 38°02' E 023°32'0 0.0
2017-Jun-13 06:00N 38°02' E 023°32'0 0.0
2017-Jun-13 05:31N 38°02' E 023°32'0 0.0
2017-Jun-13 04:59N 38°02' E 023°32'0 0.0
2017-Jun-13 04:30N 38°02' E 023°32'0 0.0
2017-Jun-13 04:00N 38°02' E 023°32'  
Track history (hours):
 
Tides and Currents Weather Stations Pressure Air Temp Water Temp Dewpoint Dewpoint Depression Visibility Wind Speed Wind Dir Waves Ship Positions

Aegean Viii

Last reported at 2017-Jun-22 15:43 UTC. Time now 2017-Jun-23 00:10 UTC.
Position N 38°02' E 023°32'.

Length 12 m; draft 3.8 m.

Type: Tanker. MMSI: 240732000.

Date/timePositionNaut miles runAvg speedWind from/ knotsBaromVisibWave heightAir tempDewpointWater temp
2017-Jun-22 15:43N 38°02' E 023°32'0 0.0
2017-Jun-22 15:30N 38°02' E 023°32'1 1.5
2017-Jun-22 15:00N 38°02' E 023°32'4 8.7
2017-Jun-22 14:30N 37°57' E 023°34'3 3.0
2017-Jun-22 13:30N 37°56' E 023°37'0 0.0
2017-Jun-22 13:00N 37°56' E 023°37'0 0.0
2017-Jun-22 12:30N 37°56' E 023°37'0 0.0
2017-Jun-22 12:00N 37°56' E 023°37'0 0.0
2017-Jun-22 11:30N 37°56' E 023°37'0 0.1
2017-Jun-22 11:00N 37°56' E 023°37'1 2.6
2017-Jun-22 10:30N 37°57' E 023°36'4 7.4
2017-Jun-22 10:00N 37°60' E 023°33'3 5.5
2017-Jun-22 09:30N 38°02' E 023°32'0 0.0
2017-Jun-22 09:00N 38°02' E 023°32'0 0.0
2017-Jun-22 08:30N 38°02' E 023°32'0 0.0
2017-Jun-22 08:00N 38°02' E 023°32'0 0.0
2017-Jun-22 07:26N 38°02' E 023°32'0 0.0
2017-Jun-22 06:59N 38°02' E 023°32'0 0.0
2017-Jun-22 06:30N 38°02' E 023°32'0 0.1
2017-Jun-22 06:00N 38°02' E 023°32'0 0.0
2017-Jun-22 05:29N 38°02' E 023°32'0 0.0
2017-Jun-22 05:00N 38°02' E 023°32'0 0.0
2017-Jun-21 14:00N 38°02' E 023°32'2 4.8
2017-Jun-21 13:31N 38°02' E 023°35'1 1.0
2017-Jun-21 13:01N 38°02' E 023°36'0 0.0
2017-Jun-21 12:30N 38°02' E 023°36'0 0.0
2017-Jun-21 12:01N 38°02' E 023°36'0 0.0
2017-Jun-21 11:30N 38°02' E 023°36'0 0.0
2017-Jun-21 11:00N 38°02' E 023°36'0 0.0
2017-Jun-21 10:30N 38°02' E 023°36'0 0.0
2017-Jun-21 10:00N 38°02' E 023°36'0 0.7
2017-Jun-21 09:31N 38°02' E 023°35'0 0.0
2017-Jun-21 09:00N 38°02' E 023°35'0 0.0
2017-Jun-21 08:29N 38°02' E 023°35'0 0.0
2017-Jun-21 08:00N 38°02' E 023°35'0 0.0
2017-Jun-21 07:30N 38°02' E 023°35'0 0.0
2017-Jun-21 07:01N 38°02' E 023°35'1 1.5
2017-Jun-21 06:30N 38°02' E 023°34'2 4.0
2017-Jun-21 06:00N 38°02' E 023°32'0 0.0
2017-Jun-21 05:30N 38°02' E 023°32'0 0.0
2017-Jun-21 05:00N 38°02' E 023°32'0 0.0
2017-Jun-20 12:02N 38°02' E 023°32'0 0.1
2017-Jun-20 12:00N 38°02' E 023°32'0 0.0
2017-Jun-20 11:30N 38°02' E 023°32'0 0.9
2017-Jun-20 11:00N 38°02' E 023°32'4 6.9
2017-Jun-20 10:29N 37°58' E 023°33'3 7.1
2017-Jun-20 10:00N 37°57' E 023°36'1 2.7
2017-Jun-20 09:29N 37°56' E 023°38'0 0.0
2017-Jun-20 08:59N 37°56' E 023°38'0 0.0
2017-Jun-20 08:30N 37°56' E 023°38'0 0.0
2017-Jun-20 07:22N 37°56' E 023°38'0 0.0
2017-Jun-20 06:54N 37°56' E 023°38'0 0.0
2017-Jun-20 06:27N 37°56' E 023°38'0 0.0
2017-Jun-20 05:57N 37°56' E 023°38'1 2.3
2017-Jun-20 05:30N 37°56' E 023°37'4 7.8
2017-Jun-20 05:00N 37°58' E 023°33'4 7.8
2017-Jun-20 04:30N 38°02' E 023°32'0 0.0
2017-Jun-20 04:00N 38°02' E 023°32'0 0.0
2017-Jun-20 03:30N 38°02' E 023°32'0 0.0
2017-Jun-19 14:49N 38°02' E 023°32'1 1.3
2017-Jun-19 14:00N 38°02' E 023°31'0 0.1
2017-Jun-19 13:31N 38°02' E 023°31'0 0.0
2017-Jun-19 13:00N 38°02' E 023°31'0 0.0
2017-Jun-19 12:30N 38°02' E 023°31'0 0.0
2017-Jun-19 12:00N 38°02' E 023°31'0 0.0
2017-Jun-19 11:30N 38°02' E 023°31'0 0.0
2017-Jun-19 11:00N 38°02' E 023°31'0 0.0
2017-Jun-19 10:30N 38°02' E 023°31'2 3.4
2017-Jun-19 10:00N 38°01' E 023°32'4 7.9
2017-Jun-19 09:29N 37°57' E 023°34'3 6.4
2017-Jun-19 09:00N 37°54' E 023°33'1 2.8
2017-Jun-19 08:30N 37°53' E 023°32'0 0.0
2017-Jun-19 08:00N 37°53' E 023°32'0 0.0
2017-Jun-19 07:30N 37°53' E 023°32'0 0.0
2017-Jun-19 07:00N 37°53' E 023°33'0 0.0
2017-Jun-19 05:39N 37°53' E 023°33'0 0.3
2017-Jun-19 05:30N 37°53' E 023°33'0 0.0
2017-Jun-19 05:00N 37°53' E 023°33'0 0.0
2017-Jun-19 04:30N 37°53' E 023°33'0 0.0
2017-Jun-19 04:00N 37°53' E 023°32'0 0.0
2017-Jun-19 03:30N 37°53' E 023°32'0 0.0
2017-Jun-19 03:00N 37°53' E 023°33'0 0.1
2017-Jun-19 02:30N 37°53' E 023°33'0 0.0
2017-Jun-19 02:00N 37°53' E 023°33'0 0.0
2017-Jun-19 01:30N 37°53' E 023°33'0 0.7
2017-Jun-19 00:59N 37°53' E 023°32'4 7.8
2017-Jun-19 00:30N 37°52' E 023°28'4 8.2
2017-Jun-19 00:00N 37°54' E 023°23'4 8.3
2017-Jun-18 23:29N 37°57' E 023°25'3 5.8
2017-Jun-18 23:00N 37°60' E 023°26'4 8.4
2017-Jun-18 22:31N 38°01' E 023°31'3 6.7
2017-Jun-18 22:00N 38°02' E 023°36'0 0.2
2017-Jun-18 21:30N 38°02' E 023°36'0 0.0
2017-Jun-18 20:59N 38°02' E 023°36'0 0.0
2017-Jun-18 20:30N 38°02' E 023°36'0 0.0
2017-Jun-18 20:00N 38°02' E 023°36'0 0.0
2017-Jun-18 19:30N 38°02' E 023°36'0 0.0
2017-Jun-18 19:00N 38°02' E 023°36'0 0.0
2017-Jun-18 18:30N 38°02' E 023°36'0 0.0
2017-Jun-18 18:00N 38°02' E 023°36'0 0.0
2017-Jun-18 17:29N 38°02' E 023°36'0 0.0
2017-Jun-18 17:01N 38°02' E 023°36'0 0.0
2017-Jun-18 16:31N 38°02' E 023°36'0 0.0
2017-Jun-18 16:00N 38°02' E 023°36'0 0.0
2017-Jun-18 15:30N 38°02' E 023°36'0 0.0
2017-Jun-18 15:00N 38°02' E 023°36'1 0.6
2017-Jun-18 14:00N 38°02' E 023°35'0 0.0
2017-Jun-18 13:30N 38°02' E 023°35'0 0.0
2017-Jun-18 13:00N 38°02' E 023°35'0 0.0
2017-Jun-18 12:30N 38°02' E 023°35'0 0.0
2017-Jun-18 12:00N 38°02' E 023°35'0 0.0
2017-Jun-18 11:30N 38°02' E 023°35'0 0.0
2017-Jun-18 11:00N 38°02' E 023°35'0 0.0
2017-Jun-18 10:31N 38°02' E 023°35'0 0.0
2017-Jun-18 10:00N 38°02' E 023°35'0 0.0
2017-Jun-18 09:30N 38°02' E 023°35'0 0.0
2017-Jun-18 09:00N 38°02' E 023°35'0 0.0
2017-Jun-18 08:30N 38°02' E 023°35'0 0.0
2017-Jun-18 08:00N 38°02' E 023°35'0 0.0
2017-Jun-18 07:30N 38°02' E 023°35'0 0.0
2017-Jun-18 07:01N 38°02' E 023°35'0 0.0
2017-Jun-18 06:30N 38°02' E 023°35'0 0.0
2017-Jun-18 06:00N 38°02' E 023°35'0 0.0
2017-Jun-18 05:30N 38°02' E 023°35'0 0.0
2017-Jun-18 05:00N 38°02' E 023°35'0 0.1
2017-Jun-18 04:30N 38°02' E 023°35'0 0.0
2017-Jun-18 04:01N 38°02' E 023°35'0 0.0
2017-Jun-18 03:30N 38°02' E 023°35'0 0.0
2017-Jun-18 03:00N 38°02' E 023°35'0 0.1
2017-Jun-18 02:31N 38°02' E 023°35'0 0.0
2017-Jun-18 02:00N 38°02' E 023°35'0 0.0
2017-Jun-18 01:30N 38°02' E 023°35'0 0.0
2017-Jun-18 01:00N 38°02' E 023°35'0 0.0
2017-Jun-18 00:30N 38°02' E 023°35'0 0.0
2017-Jun-18 00:01N 38°02' E 023°35'0 0.0
2017-Jun-17 23:30N 38°02' E 023°35'0 0.0
2017-Jun-17 23:00N 38°02' E 023°35'0 0.0
2017-Jun-17 22:30N 38°02' E 023°35'0 0.0
2017-Jun-17 22:00N 38°02' E 023°35'0 0.1
2017-Jun-17 21:30N 38°02' E 023°35'0 0.0
2017-Jun-17 21:01N 38°02' E 023°35'0 0.0
2017-Jun-17 20:30N 38°02' E 023°35'0 0.0
2017-Jun-17 20:00N 38°02' E 023°35'0 0.1
2017-Jun-17 19:30N 38°02' E 023°35'0 0.0
2017-Jun-17 19:00N 38°02' E 023°35'0 0.0
2017-Jun-17 18:30N 38°02' E 023°35'0 0.0
2017-Jun-17 18:00N 38°02' E 023°35'0 0.1
2017-Jun-17 17:30N 38°02' E 023°35'0 0.0
2017-Jun-17 17:00N 38°02' E 023°35'0 0.0
2017-Jun-17 16:31N 38°02' E 023°35'0 0.1
2017-Jun-17 15:59N 38°02' E 023°35'0 0.1
2017-Jun-17 15:31N 38°02' E 023°35'0 0.1
2017-Jun-17 15:00N 38°02' E 023°35'0 0.0
2017-Jun-17 14:00N 38°02' E 023°35'0 0.0
2017-Jun-17 13:30N 38°02' E 023°35'0 0.0
2017-Jun-17 13:00N 38°02' E 023°35'0 0.0
2017-Jun-17 12:30N 38°02' E 023°35'0 0.1
2017-Jun-17 12:00N 38°02' E 023°35'0 0.0
2017-Jun-17 11:31N 38°02' E 023°35'0 0.0
2017-Jun-17 11:00N 38°02' E 023°35'0 0.0
2017-Jun-17 10:30N 38°02' E 023°35'0 0.0
2017-Jun-17 10:00N 38°02' E 023°35'0 0.0
2017-Jun-17 09:30N 38°02' E 023°35'0 0.0
2017-Jun-17 09:00N 38°02' E 023°35'0 0.0
2017-Jun-17 08:30N 38°02' E 023°35'0 0.0
2017-Jun-17 08:00N 38°02' E 023°35'0 0.0
2017-Jun-17 07:30N 38°02' E 023°35'0 0.0
2017-Jun-17 07:01N 38°02' E 023°35'0 0.0
2017-Jun-17 06:30N 38°02' E 023°35'0 0.0
2017-Jun-17 05:59N 38°02' E 023°35'0 0.0
2017-Jun-17 05:29N 38°02' E 023°35'0 0.0
2017-Jun-17 05:01N 38°02' E 023°35'0 0.1
2017-Jun-17 04:31N 38°02' E 023°35'0 0.1
2017-Jun-17 03:59N 38°02' E 023°35'0 0.6
2017-Jun-17 03:31N 38°02' E 023°34'2 3.8
2017-Jun-17 02:59N 38°02' E 023°32'0 0.0
2017-Jun-17 02:30N 38°02' E 023°32'0 0.0
2017-Jun-16 12:42N 38°02' E 023°32'0 0.0
2017-Jun-16 12:31N 38°02' E 023°32'0 0.4
2017-Jun-16 12:00N 38°02' E 023°32'0 0.4
2017-Jun-16 11:30N 38°02' E 023°32'0 0.0
2017-Jun-16 11:00N 38°02' E 023°32'0 0.0
2017-Jun-16 10:30N 38°02' E 023°32'0 0.0
2017-Jun-16 10:00N 38°02' E 023°32'0 0.0
2017-Jun-16 09:30N 38°02' E 023°32'0 0.0
2017-Jun-16 09:00N 38°02' E 023°32'0 0.0
2017-Jun-16 08:30N 38°02' E 023°32'0 0.0
2017-Jun-16 08:00N 38°02' E 023°32'0 0.0
2017-Jun-16 07:30N 38°02' E 023°32'0 0.0
2017-Jun-16 07:00N 38°02' E 023°32'0 0.0
2017-Jun-16 06:30N 38°02' E 023°32'0 0.0
2017-Jun-16 06:01N 38°02' E 023°32'0 0.0
2017-Jun-16 05:30N 38°02' E 023°32'0 0.0
2017-Jun-16 05:01N 38°02' E 023°32'0 0.0
2017-Jun-16 04:31N 38°02' E 023°32'0 0.0
2017-Jun-15 11:23N 38°02' E 023°32'0 0.0
2017-Jun-15 11:00N 38°02' E 023°32'0 0.0
2017-Jun-15 10:30N 38°02' E 023°32'0 0.0
2017-Jun-15 10:00N 38°02' E 023°32'0 0.0
2017-Jun-15 09:30N 38°02' E 023°32'0 0.0
2017-Jun-15 09:00N 38°02' E 023°32'0 0.0
2017-Jun-15 08:29N 38°02' E 023°32'0 0.0
2017-Jun-15 08:00N 38°02' E 023°32'0 0.0
2017-Jun-15 07:30N 38°02' E 023°32'0 0.0
2017-Jun-15 07:00N 38°02' E 023°32'0 0.0
2017-Jun-15 06:30N 38°02' E 023°32'0 0.0
2017-Jun-15 06:00N 38°02' E 023°32'0 0.2
2017-Jun-15 05:30N 38°02' E 023°32'0 0.2
2017-Jun-15 05:01N 38°02' E 023°32'0 0.0
2017-Jun-15 04:30N 38°02' E 023°32'0 0.0
2017-Jun-14 13:30N 38°02' E 023°32'1 1.8
2017-Jun-14 13:01N 38°01' E 023°32'5 9.1
2017-Jun-14 12:30N 37°57' E 023°34'4 8.7
2017-Jun-14 12:00N 37°53' E 023°33'1 1.9
2017-Jun-14 11:30N 37°52' E 023°33'0 0.0
2017-Jun-14 11:00N 37°52' E 023°33'0 0.1
2017-Jun-14 10:30N 37°52' E 023°33'0 0.1
2017-Jun-14 10:00N 37°52' E 023°33'0 0.0
2017-Jun-14 09:29N 37°52' E 023°33'0 0.0
2017-Jun-14 09:01N 37°52' E 023°33'0 0.1
2017-Jun-14 08:30N 37°52' E 023°33'0 0.0
2017-Jun-14 08:00N 37°52' E 023°33'0 0.1
2017-Jun-14 07:30N 37°52' E 023°33'0 0.0
2017-Jun-14 07:00N 37°52' E 023°33'0 0.1
2017-Jun-14 06:30N 37°52' E 023°33'0 0.0
2017-Jun-14 06:00N 37°52' E 023°33'0 0.1
2017-Jun-14 05:30N 37°52' E 023°33'0 0.3
2017-Jun-14 05:00N 37°52' E 023°32'2 3.2
2017-Jun-14 04:30N 37°54' E 023°33'4 7.2
2017-Jun-14 04:00N 37°57' E 023°34'3 7.0
2017-Jun-14 03:30N 38°01' E 023°32'2 3.6
2017-Jun-14 03:00N 38°02' E 023°32'0 0.0
2017-Jun-14 02:30N 38°02' E 023°32'0 0.0
2017-Jun-13 17:43N 38°02' E 023°32'0 0.0
2017-Jun-13 17:30N 38°02' E 023°32'1 2.0
2017-Jun-13 17:00N 38°02' E 023°31'0 0.1
2017-Jun-13 16:30N 38°02' E 023°31'0 0.0
2017-Jun-13 16:00N 38°02' E 023°31'0 0.0
2017-Jun-13 15:31N 38°02' E 023°31'0 0.0
2017-Jun-13 15:01N 38°02' E 023°31'0 0.0
2017-Jun-13 14:00N 38°02' E 023°31'0 0.0
2017-Jun-13 13:30N 38°02' E 023°31'0 0.3
2017-Jun-13 13:00N 38°02' E 023°31'1 1.1
2017-Jun-13 12:30N 38°02' E 023°32'0 0.0
2017-Jun-13 11:59N 38°02' E 023°32'0 0.1
2017-Jun-13 11:30N 38°02' E 023°31'2 4.3
2017-Jun-13 11:00N 38°02' E 023°34'0 0.9
2017-Jun-13 10:31N 38°02' E 023°35'0 0.1
2017-Jun-13 10:01N 38°02' E 023°35'0 0.0
2017-Jun-13 09:30N 38°02' E 023°35'0 0.0
2017-Jun-13 09:00N 38°02' E 023°35'0 0.0
2017-Jun-13 08:30N 38°02' E 023°35'1 1.3
2017-Jun-13 08:00N 38°02' E 023°34'2 3.3
2017-Jun-13 07:30N 38°02' E 023°32'0 0.0
2017-Jun-13 07:01N 38°02' E 023°32'0 0.0
2017-Jun-13 06:30N 38°02' E 023°32'0 0.0
2017-Jun-13 06:00N 38°02' E 023°32'0 0.0
2017-Jun-13 05:31N 38°02' E 023°32'0 0.0
2017-Jun-13 04:59N 38°02' E 023°32'0 0.0
2017-Jun-13 04:30N 38°02' E 023°32'0 0.0
2017-Jun-13 04:00N 38°02' E 023°32'  

Dump ship's entire track history